createdAt,value
2022-12-11T00:00:28.417Z,84.90
2022-12-11T00:10:52.213Z,84.84
2022-12-11T00:20:56.125Z,85.08
2022-12-11T00:31:00.401Z,84.98
2022-12-11T00:41:04.366Z,84.97
2022-12-11T00:51:08.336Z,85.10
2022-12-11T01:01:16.119Z,84.75
2022-12-11T01:11:21.403Z,85.05
2022-12-11T01:21:25.582Z,85.06
2022-12-11T01:31:30.371Z,85.19
2022-12-11T01:41:34.126Z,85.24
2022-12-11T01:51:44.285Z,85.25
2022-12-11T02:01:58.877Z,84.92
2022-12-11T02:12:06.006Z,85.33
2022-12-11T02:22:17.164Z,84.36
2022-12-11T02:32:36.151Z,84.13
2022-12-11T02:42:42.581Z,84.33
2022-12-11T02:52:49.220Z,84.60
2022-12-11T03:02:53.223Z,85.02
2022-12-11T03:12:59.617Z,84.78
2022-12-11T03:23:24.463Z,84.78
2022-12-11T03:33:43.434Z,84.29
2022-12-11T03:43:50.694Z,84.42
2022-12-11T03:53:55.770Z,85.43
2022-12-11T04:03:59.606Z,86.08
2022-12-11T04:14:30.990Z,85.87
2022-12-11T04:24:35.122Z,85.21
2022-12-11T04:34:41.008Z,85.16
2022-12-11T04:44:44.874Z,85.45
2022-12-11T04:54:49.449Z,85.24
2022-12-11T05:04:53.346Z,85.45
2022-12-11T05:14:57.266Z,85.72
2022-12-11T05:25:00.933Z,85.66
2022-12-11T05:35:05.322Z,85.87
2022-12-11T05:45:10.148Z,85.04
2022-12-11T05:55:14.389Z,84.82
2022-12-11T06:05:18.173Z,85.33
2022-12-11T06:15:22.553Z,85.34
2022-12-11T06:25:26.509Z,85.35
2022-12-11T06:35:30.537Z,84.22
2022-12-11T06:45:34.380Z,84.12
2022-12-11T06:55:38.325Z,84.09
2022-12-11T07:05:42.281Z,84.48
2022-12-11T07:15:46.358Z,84.33
2022-12-11T07:25:50.447Z,84.83
2022-12-11T07:35:54.302Z,84.36
2022-12-11T07:46:08.186Z,83.94
2022-12-11T07:56:14.442Z,84.41
2022-12-11T08:06:19.320Z,84.54
2022-12-11T08:16:23.941Z,83.73
2022-12-11T08:26:30.432Z,82.69
2022-12-11T08:36:34.918Z,82.50
2022-12-11T08:46:40.293Z,81.80
2022-12-11T08:56:45.016Z,81.09
2022-12-11T09:06:50.256Z,80.68
2022-12-11T09:16:54.298Z,80.57
2022-12-11T09:26:58.252Z,78.63
2022-12-11T09:37:03.045Z,78.81
2022-12-11T09:47:31.378Z,78.19
2022-12-11T09:58:19.447Z,77.39
2022-12-11T10:08:51.066Z,76.30
2022-12-11T10:18:56.221Z,75.17
2022-12-11T10:29:01.753Z,75.36
2022-12-11T10:39:18.132Z,75.26
2022-12-11T10:49:28.063Z,74.51
2022-12-11T10:59:44.164Z,74.27
2022-12-11T11:09:49.195Z,74.10
2022-12-11T11:19:53.346Z,74.40
2022-12-11T11:30:02.027Z,74.77
2022-12-11T11:40:23.493Z,74.66
2022-12-11T11:50:34.526Z,74.77
2022-12-11T12:00:39.307Z,74.55
2022-12-11T12:11:06.719Z,74.81
2022-12-11T12:21:19.888Z,75.16
2022-12-11T12:31:54.214Z,75.62
2022-12-11T12:42:20.325Z,75.76
2022-12-11T12:52:32.707Z,75.80
2022-12-11T13:02:51.086Z,76.12
2022-12-11T13:12:56.638Z,76.49
2022-12-11T13:23:07.414Z,76.36
2022-12-11T13:33:19.737Z,76.99
2022-12-11T13:43:28.090Z,77.00
2022-12-11T13:53:33.332Z,77.15
2022-12-11T14:03:42.698Z,77.15
2022-12-11T14:13:47.475Z,77.72
2022-12-11T14:23:54.931Z,77.62
2022-12-11T14:34:09.845Z,77.68
2022-12-11T14:44:18.345Z,77.59
2022-12-11T14:54:39.566Z,78.32
2022-12-11T15:04:44.147Z,78.15
2022-12-11T15:14:54.606Z,78.25
2022-12-11T15:25:01.611Z,78.66
2022-12-11T15:35:22.872Z,78.76
2022-12-11T15:45:30.286Z,79.48
2022-12-11T15:55:35.426Z,79.01
2022-12-11T16:05:42.198Z,78.71
2022-12-11T16:15:51.195Z,78.73
2022-12-11T16:25:56.041Z,78.28
2022-12-11T16:36:01.079Z,77.90
2022-12-11T16:46:06.451Z,78.09
2022-12-11T16:56:15.073Z,78.31
2022-12-11T17:06:20.607Z,78.16
2022-12-11T17:16:29.502Z,78.03
2022-12-11T17:26:35.237Z,78.02
2022-12-11T17:36:40.438Z,78.21
2022-12-11T17:46:45.368Z,78.11
2022-12-11T17:56:51.833Z,77.46
2022-12-11T18:06:56.806Z,77.09
2022-12-11T18:17:05.013Z,77.79
2022-12-11T18:27:11.942Z,78.46
2022-12-11T18:37:24.696Z,78.34
2022-12-11T18:47:33.382Z,78.82
2022-12-11T18:57:38.361Z,78.83
2022-12-11T19:07:44.837Z,78.21
2022-12-11T19:17:51.113Z,78.30
2022-12-11T19:27:58.284Z,78.30
2022-12-11T19:38:04.327Z,78.06
2022-12-11T19:48:09.813Z,77.80
2022-12-11T19:58:15.212Z,77.25
2022-12-11T20:08:43.733Z,77.54
2022-12-11T20:18:46.916Z,76.98
2022-12-11T20:28:57.641Z,76.71
2022-12-11T20:39:06.075Z,76.88
2022-12-11T20:49:13.944Z,77.05
2022-12-11T20:59:20.275Z,76.90
2022-12-11T21:09:27.209Z,76.91
2022-12-11T21:19:31.899Z,76.76
2022-12-11T21:29:35.939Z,76.66
2022-12-11T21:39:42.007Z,76.68
2022-12-11T21:49:47.913Z,76.56
2022-12-11T21:59:52.596Z,76.24
2022-12-11T22:09:56.524Z,76.03
2022-12-11T22:20:00.705Z,76.25
2022-12-11T22:30:05.471Z,76.42
2022-12-11T22:40:09.722Z,76.44
2022-12-11T22:50:14.392Z,76.76
2022-12-11T23:00:18.614Z,76.31
2022-12-11T23:10:22.444Z,76.56
2022-12-11T23:20:26.082Z,76.56
2022-12-11T23:30:30.022Z,76.68
2022-12-11T23:40:34.756Z,76.46
2022-12-11T23:50:40.351Z,76.87
